Airfield :
LOGIN :

Register | Disclaimer

   EN    FR    IT 

 










Legend :    VFR   Marginal VFR   IFR   Intensive IFR   Very Intensive IFR
Visi :
Ceiling :
>= 8 km
>= 3000ft
5 to 8 km
1000 to 3000 ft
1500m to 5 km
500 to 1000 ft
800 to 1500m
200 to 500 ft
< 800m
< 200 ft
Symbols :   Thunderstorms  Fog  Heavy snow  Heavy precipitations  Wind > 20 kt
SIGMETs :     Misc.  Thunderstorms  Icing  Turbulence  Mountain Waves  Volcanic Ashes






- Airport Elevation : 19 ft
- IATA code : VAA


EFVA - Vaasa

CURRENT METAR :
  • 131420Z AUTO 08004KT 9999 -RA SCT002 OVC020 03/03 Q1004

EXPIRED METARs :
  • 131350Z AUTO 10005KT 9999 -RA SCT002 OVC020 03/03 Q1005
  • 131320Z AUTO 10005KT 8000 -RA BKN002 OVC021 03/03 Q1005
  • 131250Z AUTO 12006KT 7000 -RA BKN002 OVC021 03/03 Q1006
  • 131220Z AUTO 12007KT 5000 -RA OVC002 03/03 Q1006
  • 131150Z AUTO 12005KT 5000 -RA BKN002 OVC016 03/03 Q1006

TAF AMD TAF EFVA
Valid from the 13 at 12:00 until the 14 at 12:00 UTC


131233Z 1312/1412 13006KT 8000 BKN002
TEMPO 1312/1319 4000 -RA BKN008
BECMG 1319/1321 6000
TEMPO 1321/1409 4000 -DZRA
PROB40 1400/1409 2000 BR
BECMG 1409/1411 9000 BKN006



MET'MAP, your aeronautical weather chart ! - Copyright ORBIFLY December 2007 - Disclaimer

ORBIFLY MET'MAP TEAM :

Programming & Development : Alexandra Zaïnal
Concept & Development : Baudouin d'Aumeries
Co-Development & Prog : Marc-Olivier Méhu
Technical & hardware support : Manuel Goepfert

Contact : metmap@orbifly.com




SOURCES & CREDITS :

   NOAA